Aviation Digital Data Service (ADDS)

Output produced by METARs form (1727 UTC 20 January 2019)
found at http://www.aviationweather.gov/metar/data/
 
DTTA 201700Z 12005KT 080V150 9999 FEW026 13/07 Q1010 NOSIG
TAF DTTA 201700Z 2018/2118 11008KT 9999 FEW026 
     BECMG 2020/2022 18010KT 
     PROB30 
     TEMPO 2108/2112 -RA SCT026TCU 
     BECMG 2110/2112 25010KT 
     PROB30 
     TEMPO 2115/2118 -SHRA SCT026CB
       
DTTR 201200Z 21008KT CAVOK 15/M02 Q1018 NOSIG
DTTG 201700Z 25010KT 9999 FEW030 14/01 Q1013 NOSIG
TAF DTTG 201500Z 2016/2101 24014KT 9999 FEW030
       
DTTF 201700Z 24010KT 8000 NSC 12/01 Q1012 NOSIG
TAF DTTF 201500Z 2016/2101 22015KT 9999 FEW033 
     BECMG 2021/2023 14008KT
       
DTMB 201700Z 12010KT 8000 FEW026 14/09 Q1012
TAF DTMB 201700Z 2018/2118 11010KT 8000 FEW026 
     BECMG 2019/2021 18012KT 
     PROB30 
     TEMPO 2110/2115 -TSRA SCT026TCU 
     BECMG 2111/2113 03008KT
       
DTTZ 201700Z 22008KT 9999 SCT033 15/00 Q1012 NOSIG
TAF DTTZ 201700Z 2018/2118 26010KT 9999 FEW030 
     BECMG 2020/2022 04008KT 
     BECMG 2106/2108 26010KT
       
DTTD 201700Z 28006KT 230V330 CAVOK 15/M03 Q1014
DTTB 201700Z 10006KT 9999 FEW020 10/06 Q1010
DTKA 201700Z 07002KT 9999 SCT020 12/08 Q1009 NOSIG
TAF DTKA 201500Z 2016/2101 18010KT 9999 FEW020
       
DTTX 201700Z 18008KT 8000 NSC 14/06 Q1012
TAF DTTX 201700Z 2018/2118 18010KT 8000 FEW023 
     PROB30 
     TEMPO 2110/2115 -TSRA SCT026TCU 
     BECMG 2111/2113 23015KT
       
DTTJ 201700Z 17004KT 150V210 9999 FEW030 13/04 Q1013 NOSIG
TAF DTTJ 201700Z 2018/2118 20010KT 9999 FEW030 
     BECMG 2109/2111 27010KT 
     PROB30 
     TEMPO 2110/2115 -TSRA SCT026TCU